sensor_id;sensor_type;location;lat;lon;timestamp;pressure;altitude;pressure_sealevel;temperature;humidity
22938;BME280;11634;42.734;23.298;2022-11-15T00:00:02;95794.16;;;2.98;100.00
22938;BME280;11634;42.734;23.298;2022-11-15T00:02:47;95734.09;;;2.67;100.00
22938;BME280;11634;42.734;23.298;2022-11-15T00:05:34;95759.84;;;2.82;100.00
22938;BME280;11634;42.734;23.298;2022-11-15T00:08:19;95784.03;;;2.95;100.00
22938;BME280;11634;42.734;23.298;2022-11-15T00:11:04;95770.13;;;2.99;100.00
22938;BME280;11634;42.734;23.298;2022-11-15T00:13:47;95779.47;;;3.17;100.00
22938;BME280;11634;42.734;23.298;2022-11-15T00:16:31;95745.88;;;3.20;100.00
22938;BME280;11634;42.734;23.298;2022-11-15T00:19:15;95761.22;;;3.22;100.00
22938;BME280;11634;42.734;23.298;2022-11-15T00:22:00;95754.91;;;3.12;100.00
22938;BME280;11634;42.734;23.298;2022-11-15T00:24:43;95748.25;;;3.08;100.00
22938;BME280;11634;42.734;23.298;2022-11-15T00:27:27;95752.56;;;3.07;100.00
22938;BME280;11634;42.734;23.298;2022-11-15T00:30:12;95743.50;;;3.00;100.00
22938;BME280;11634;42.734;23.298;2022-11-15T00:32:56;95763.00;;;3.04;100.00
22938;BME280;11634;42.734;23.298;2022-11-15T00:35:40;95752.94;;;3.00;100.00
22938;BME280;11634;42.734;23.298;2022-11-15T00:38:24;95759.00;;;2.99;100.00
22938;BME280;11634;42.734;23.298;2022-11-15T00:41:08;95767.31;;;3.04;100.00
22938;BME280;11634;42.734;23.298;2022-11-15T00:43:52;95768.44;;;2.98;100.00
22938;BME280;11634;42.734;23.298;2022-11-15T00:46:36;95770.56;;;2.90;100.00
22938;BME280;11634;42.734;23.298;2022-11-15T00:49:20;95771.69;;;2.85;100.00
22938;BME280;11634;42.734;23.298;2022-11-15T00:52:04;95760.59;;;2.84;100.00
22938;BME280;11634;42.734;23.298;2022-11-15T00:54:48;95755.31;;;2.87;100.00
22938;BME280;11634;42.734;23.298;2022-11-15T00:57:31;95756.75;;;2.93;100.00
22938;BME280;11634;42.734;23.298;2022-11-15T01:00:16;95744.50;;;2.81;100.00
22938;BME280;11634;42.734;23.298;2022-11-15T01:03:00;95749.41;;;2.85;100.00
22938;BME280;11634;42.734;23.298;2022-11-15T01:05:45;95748.34;;;3.06;100.00
22938;BME280;11634;42.734;23.298;2022-11-15T01:08:29;95739.78;;;3.06;100.00
22938;BME280;11634;42.734;23.298;2022-11-15T01:11:13;95679.03;;;2.88;100.00
22938;BME280;11634;42.734;23.298;2022-11-15T01:13:57;95715.19;;;3.17;100.00
22938;BME280;11634;42.734;23.298;2022-11-15T01:16:41;95733.50;;;3.11;100.00
22938;BME280;11634;42.734;23.298;2022-11-15T01:19:25;95734.88;;;3.18;100.00
22938;BME280;11634;42.734;23.298;2022-11-15T01:22:09;95738.06;;;3.06;100.00
22938;BME280;11634;42.734;23.298;2022-11-15T01:24:53;95729.44;;;2.90;100.00
22938;BME280;11634;42.734;23.298;2022-11-15T01:27:37;95718.66;;;2.84;100.00
22938;BME280;11634;42.734;23.298;2022-11-15T01:30:21;95728.84;;;3.02;100.00
22938;BME280;11634;42.734;23.298;2022-11-15T01:33:05;95734.78;;;3.03;100.00
22938;BME280;11634;42.734;23.298;2022-11-15T01:35:48;95732.00;;;3.07;100.00
22938;BME280;11634;42.734;23.298;2022-11-15T01:38:33;95729.34;;;3.09;100.00
22938;BME280;11634;42.734;23.298;2022-11-15T01:41:20;95726.09;;;3.22;100.00
22938;BME280;11634;42.734;23.298;2022-11-15T01:47:31;95692.31;;;3.28;100.00
22938;BME280;11634;42.734;23.298;2022-11-15T01:50:29;95702.72;;;3.42;100.00
22938;BME280;11634;42.734;23.298;2022-11-15T01:53:14;95698.19;;;3.30;100.00
22938;BME280;11634;42.734;23.298;2022-11-15T01:56:02;95667.50;;;3.27;100.00
22938;BME280;11634;42.734;23.298;2022-11-15T01:58:48;95698.63;;;3.23;100.00
22938;BME280;11634;42.734;23.298;2022-11-15T02:01:34;95699.59;;;3.05;100.00
22938;BME280;11634;42.734;23.298;2022-11-15T02:04:28;95709.72;;;2.91;100.00
22938;BME280;11634;42.734;23.298;2022-11-15T02:07:15;95731.13;;;2.91;100.00
22938;BME280;11634;42.734;23.298;2022-11-15T02:10:09;95703.91;;;2.87;100.00
22938;BME280;11634;42.734;23.298;2022-11-15T02:12:54;95709.88;;;2.88;100.00
22938;BME280;11634;42.734;23.298;2022-11-15T02:15:48;95696.81;;;2.75;100.00
22938;BME280;11634;42.734;23.298;2022-11-15T02:18:41;95676.75;;;2.50;100.00
22938;BME280;11634;42.734;23.298;2022-11-15T02:27:58;95728.56;;;2.58;100.00
22938;BME280;11634;42.734;23.298;2022-11-15T02:31:03;95723.78;;;2.50;100.00
22938;BME280;11634;42.734;23.298;2022-11-15T02:34:02;95729.00;;;2.49;100.00
22938;BME280;11634;42.734;23.298;2022-11-15T02:43:53;95710.66;;;2.22;100.00
22938;BME280;11634;42.734;23.298;2022-11-15T02:47:01;95718.50;;;2.36;100.00
22938;BME280;11634;42.734;23.298;2022-11-15T02:50:02;95719.94;;;2.25;100.00
22938;BME280;11634;42.734;23.298;2022-11-15T02:52:50;95716.84;;;2.18;100.00
22938;BME280;11634;42.734;23.298;2022-11-15T02:55:38;95703.31;;;2.15;100.00
22938;BME280;11634;42.734;23.298;2022-11-15T03:02:03;95719.72;;;2.13;100.00
22938;BME280;11634;42.734;23.298;2022-11-15T03:11:07;95726.56;;;2.12;100.00
22938;BME280;11634;42.734;23.298;2022-11-15T03:19:40;95708.19;;;2.03;100.00
22938;BME280;11634;42.734;23.298;2022-11-15T03:22:30;95699.53;;;2.05;100.00
22938;BME280;11634;42.734;23.298;2022-11-15T03:25:20;95695.84;;;2.11;100.00
22938;BME280;11634;42.734;23.298;2022-11-15T03:28:09;95696.94;;;2.23;100.00
22938;BME280;11634;42.734;23.298;2022-11-15T03:30:55;95681.81;;;2.34;100.00
22938;BME280;11634;42.734;23.298;2022-11-15T03:33:41;95693.38;;;2.43;100.00
22938;BME280;11634;42.734;23.298;2022-11-15T03:36:26;95653.50;;;2.36;100.00
22938;BME280;11634;42.734;23.298;2022-11-15T03:39:12;95669.94;;;2.66;100.00
22938;BME280;11634;42.734;23.298;2022-11-15T03:48:11;95686.59;;;2.91;100.00
22938;BME280;11634;42.734;23.298;2022-11-15T03:50:57;95690.97;;;2.89;100.00
22938;BME280;11634;42.734;23.298;2022-11-15T03:53:41;95672.13;;;3.05;100.00
22938;BME280;11634;42.734;23.298;2022-11-15T03:56:25;95674.22;;;3.14;100.00
22938;BME280;11634;42.734;23.298;2022-11-15T03:59:09;95666.66;;;3.11;100.00
22938;BME280;11634;42.734;23.298;2022-11-15T04:01:53;95674.72;;;3.21;100.00
22938;BME280;11634;42.734;23.298;2022-11-15T04:04:37;95674.97;;;3.31;100.00
22938;BME280;11634;42.734;23.298;2022-11-15T04:07:21;95666.44;;;3.31;100.00
22938;BME280;11634;42.734;23.298;2022-11-15T04:10:05;95676.69;;;3.48;100.00
22938;BME280;11634;42.734;23.298;2022-11-15T04:12:49;95660.88;;;3.23;100.00
22938;BME280;11634;42.734;23.298;2022-11-15T04:15:34;95653.31;;;3.20;100.00
22938;BME280;11634;42.734;23.298;2022-11-15T04:18:18;95661.19;;;3.02;100.00
22938;BME280;11634;42.734;23.298;2022-11-15T04:21:02;95660.69;;;3.11;100.00
22938;BME280;11634;42.734;23.298;2022-11-15T04:24:05;95658.38;;;3.22;100.00
22938;BME280;11634;42.734;23.298;2022-11-15T04:26:49;95652.84;;;3.29;100.00
22938;BME280;11634;42.734;23.298;2022-11-15T04:29:33;95649.44;;;3.28;100.00
22938;BME280;11634;42.734;23.298;2022-11-15T04:32:20;95664.03;;;3.13;100.00
22938;BME280;11634;42.734;23.298;2022-11-15T04:35:04;95676.94;;;3.11;100.00
22938;BME280;11634;42.734;23.298;2022-11-15T04:37:49;95650.16;;;3.15;100.00
22938;BME280;11634;42.734;23.298;2022-11-15T04:40:33;95660.19;;;3.04;100.00
22938;BME280;11634;42.734;23.298;2022-11-15T04:43:17;95660.19;;;3.04;100.00
22938;BME280;11634;42.734;23.298;2022-11-15T04:46:01;95666.09;;;3.06;100.00
22938;BME280;11634;42.734;23.298;2022-11-15T04:48:45;95651.13;;;2.97;100.00
22938;BME280;11634;42.734;23.298;2022-11-15T04:51:30;95663.59;;;3.05;100.00
22938;BME280;11634;42.734;23.298;2022-11-15T04:54:13;95642.94;;;3.06;100.00
22938;BME280;11634;42.734;23.298;2022-11-15T04:56:57;95650.69;;;2.89;100.00
22938;BME280;11634;42.734;23.298;2022-11-15T04:59:41;95668.81;;;3.03;100.00
22938;BME280;11634;42.734;23.298;2022-11-15T05:02:25;95665.47;;;3.01;100.00
22938;BME280;11634;42.734;23.298;2022-11-15T05:05:29;95675.28;;;3.10;100.00
22938;BME280;11634;42.734;23.298;2022-11-15T05:08:16;95670.31;;;3.07;100.00
22938;BME280;11634;42.734;23.298;2022-11-15T05:11:00;95670.97;;;3.11;100.00
22938;BME280;11634;42.734;23.298;2022-11-15T05:13:44;95668.41;;;3.11;100.00
22938;BME280;11634;42.734;23.298;2022-11-15T05:16:28;95615.41;;;2.61;100.00
22938;BME280;11634;42.734;23.298;2022-11-15T05:19:12;95667.31;;;2.67;100.00
22938;BME280;11634;42.734;23.298;2022-11-15T05:21:56;95628.94;;;2.64;100.00
22938;BME280;11634;42.734;23.298;2022-11-15T05:24:40;95659.97;;;2.76;100.00
22938;BME280;11634;42.734;23.298;2022-11-15T05:27:24;95618.88;;;2.60;100.00
22938;BME280;11634;42.734;23.298;2022-11-15T05:30:08;95649.69;;;2.76;100.00
22938;BME280;11634;42.734;23.298;2022-11-15T05:32:53;95640.75;;;2.83;100.00
22938;BME280;11634;42.734;23.298;2022-11-15T05:35:40;95640.00;;;2.81;100.00
22938;BME280;11634;42.734;23.298;2022-11-15T05:38:25;95645.63;;;2.88;100.00
22938;BME280;11634;42.734;23.298;2022-11-15T05:41:10;95646.03;;;2.80;100.00
22938;BME280;11634;42.734;23.298;2022-11-15T05:43:55;95665.97;;;2.92;100.00
22938;BME280;11634;42.734;23.298;2022-11-15T05:46:40;95659.53;;;3.01;100.00
22938;BME280;11634;42.734;23.298;2022-11-15T05:49:27;95665.47;;;3.01;100.00
22938;BME280;11634;42.734;23.298;2022-11-15T05:52:15;95650.56;;;2.92;100.00
22938;BME280;11634;42.734;23.298;2022-11-15T05:55:01;95653.25;;;2.89;100.00
22938;BME280;11634;42.734;23.298;2022-11-15T05:57:46;95664.88;;;2.96;100.00
22938;BME280;11634;42.734;23.298;2022-11-15T06:00:31;95661.22;;;3.17;100.00
22938;BME280;11634;42.734;23.298;2022-11-15T06:03:14;95666.69;;;3.26;100.00
22938;BME280;11634;42.734;23.298;2022-11-15T06:05:59;95645.13;;;3.44;100.00
22938;BME280;11634;42.734;23.298;2022-11-15T06:08:43;95658.06;;;3.27;100.00
22938;BME280;11634;42.734;23.298;2022-11-15T06:11:27;95659.84;;;3.42;100.00
22938;BME280;11634;42.734;23.298;2022-11-15T06:14:11;95661.88;;;3.51;100.00
22938;BME280;11634;42.734;23.298;2022-11-15T06:16:55;95660.97;;;3.52;100.00
22938;BME280;11634;42.734;23.298;2022-11-15T06:19:39;95641.47;;;3.64;100.00
22938;BME280;11634;42.734;23.298;2022-11-15T06:22:23;95652.50;;;3.81;100.00
22938;BME280;11634;42.734;23.298;2022-11-15T06:25:07;95635.72;;;3.89;100.00
22938;BME280;11634;42.734;23.298;2022-11-15T06:27:52;95641.25;;;4.13;100.00
22938;BME280;11634;42.734;23.298;2022-11-15T06:30:36;95641.47;;;4.24;100.00
22938;BME280;11634;42.734;23.298;2022-11-15T06:33:20;95646.16;;;4.31;100.00
22938;BME280;11634;42.734;23.298;2022-11-15T06:36:10;95627.44;;;4.43;100.00
22938;BME280;11634;42.734;23.298;2022-11-15T06:38:57;95646.59;;;4.67;100.00
22938;BME280;11634;42.734;23.298;2022-11-15T06:41:41;95634.94;;;4.75;100.00
22938;BME280;11634;42.734;23.298;2022-11-15T06:44:25;95645.25;;;4.89;100.00
22938;BME280;11634;42.734;23.298;2022-11-15T06:47:09;95658.72;;;4.94;100.00
22938;BME280;11634;42.734;23.298;2022-11-15T06:49:53;95655.38;;;4.92;100.00
22938;BME280;11634;42.734;23.298;2022-11-15T06:52:37;95651.13;;;4.91;100.00
22938;BME280;11634;42.734;23.298;2022-11-15T06:55:21;95650.88;;;4.95;100.00
22938;BME280;11634;42.734;23.298;2022-11-15T06:58:05;95680.53;;;4.88;100.00
22938;BME280;11634;42.734;23.298;2022-11-15T07:00:49;95665.69;;;4.92;100.00
22938;BME280;11634;42.734;23.298;2022-11-15T07:03:38;95662.84;;;4.83;100.00
22938;BME280;11634;42.734;23.298;2022-11-15T07:06:23;95661.91;;;4.84;100.00
22938;BME280;11634;42.734;23.298;2022-11-15T07:09:07;95646.25;;;4.87;100.00
22938;BME280;11634;42.734;23.298;2022-11-15T07:11:51;95650.94;;;4.66;100.00
22938;BME280;11634;42.734;23.298;2022-11-15T07:14:35;95638.81;;;4.82;100.00
22938;BME280;11634;42.734;23.298;2022-11-15T07:17:19;95643.97;;;4.82;100.00
22938;BME280;11634;42.734;23.298;2022-11-15T07:20:03;95650.88;;;4.95;100.00
22938;BME280;11634;42.734;23.298;2022-11-15T07:22:48;95625.66;;;4.87;100.00
22938;BME280;11634;42.734;23.298;2022-11-15T07:25:32;95637.19;;;5.09;100.00
22938;BME280;11634;42.734;23.298;2022-11-15T07:28:16;95644.97;;;5.35;100.00
22938;BME280;11634;42.734;23.298;2022-11-15T07:31:07;95642.81;;;5.55;100.00
22938;BME280;11634;42.734;23.298;2022-11-15T07:33:51;95629.25;;;5.66;100.00
22938;BME280;11634;42.734;23.298;2022-11-15T07:36:35;95638.91;;;5.90;100.00
22938;BME280;11634;42.734;23.298;2022-11-15T07:39:19;95642.66;;;5.98;100.00
22938;BME280;11634;42.734;23.298;2022-11-15T07:42:03;95638.19;;;6.00;100.00
22938;BME280;11634;42.734;23.298;2022-11-15T07:45:06;95637.34;;;5.74;100.00
22938;BME280;11634;42.734;23.298;2022-11-15T07:47:51;95652.50;;;5.66;100.00
22938;BME280;11634;42.734;23.298;2022-11-15T07:50:35;95639.38;;;5.69;100.00
22938;BME280;11634;42.734;23.298;2022-11-15T07:53:19;95660.28;;;5.92;100.00
22938;BME280;11634;42.734;23.298;2022-11-15T07:56:06;95661.28;;;5.90;100.00
22938;BME280;11634;42.734;23.298;2022-11-15T07:58:50;95649.19;;;5.78;100.00
22938;BME280;11634;42.734;23.298;2022-11-15T08:01:34;95650.63;;;5.82;100.00
22938;BME280;11634;42.734;23.298;2022-11-15T08:04:18;95623.44;;;5.76;100.00
22938;BME280;11634;42.734;23.298;2022-11-15T08:07:03;95649.53;;;6.12;100.00
22938;BME280;11634;42.734;23.298;2022-11-15T08:09:47;95650.34;;;6.12;100.00
22938;BME280;11634;42.734;23.298;2022-11-15T08:12:31;95654.19;;;6.19;100.00
22938;BME280;11634;42.734;23.298;2022-11-15T08:15:16;95658.50;;;5.93;100.00
22938;BME280;11634;42.734;23.298;2022-11-15T08:18:05;95658.34;;;5.96;100.00
22938;BME280;11634;42.734;23.298;2022-11-15T08:20:49;95657.13;;;6.01;100.00
22938;BME280;11634;42.734;23.298;2022-11-15T08:23:33;95653.38;;;6.19;100.00
22938;BME280;11634;42.734;23.298;2022-11-15T08:26:17;95633.44;;;5.95;100.00
22938;BME280;11634;42.734;23.298;2022-11-15T08:29:01;95649.53;;;6.12;100.00
22938;BME280;11634;42.734;23.298;2022-11-15T08:31:45;95631.09;;;6.04;100.00
22938;BME280;11634;42.734;23.298;2022-11-15T08:34:29;95648.03;;;6.34;100.00
22938;BME280;11634;42.734;23.298;2022-11-15T08:37:13;95644.16;;;6.53;100.00
22938;BME280;11634;42.734;23.298;2022-11-15T08:39:57;95651.47;;;6.35;100.00
22938;BME280;11634;42.734;23.298;2022-11-15T08:42:41;95648.63;;;6.25;100.00
22938;BME280;11634;42.734;23.298;2022-11-15T08:45:25;95649.41;;;6.13;100.00
22938;BME280;11634;42.734;23.298;2022-11-15T08:48:09;95647.16;;;5.95;100.00
22938;BME280;11634;42.734;23.298;2022-11-15T08:50:55;95636.06;;;6.07;100.00
22938;BME280;11634;42.734;23.298;2022-11-15T08:53:40;95638.72;;;6.32;100.00
22938;BME280;11634;42.734;23.298;2022-11-15T08:56:29;95629.47;;;6.15;100.00
22938;BME280;11634;42.734;23.298;2022-11-15T08:59:13;95606.09;;;6.17;100.00
22938;BME280;11634;42.734;23.298;2022-11-15T09:02:00;95616.97;;;6.60;100.00
22938;BME280;11634;42.734;23.298;2022-11-15T09:04:44;95610.25;;;6.70;100.00
22938;BME280;11634;42.734;23.298;2022-11-15T09:07:28;95628.78;;;6.26;100.00
22938;BME280;11634;42.734;23.298;2022-11-15T09:10:14;95615.63;;;6.16;100.00
22938;BME280;11634;42.734;23.298;2022-11-15T09:12:58;95620.53;;;6.33;100.00
22938;BME280;11634;42.734;23.298;2022-11-15T09:15:43;95606.06;;;6.31;100.00
22938;BME280;11634;42.734;23.298;2022-11-15T09:18:27;95596.75;;;6.28;100.00
22938;BME280;11634;42.734;23.298;2022-11-15T09:21:11;95604.72;;;6.25;100.00
22938;BME280;11634;42.734;23.298;2022-11-15T09:23:56;95606.84;;;6.70;100.00
22938;BME280;11634;42.734;23.298;2022-11-15T09:26:41;95622.56;;;6.92;100.00
22938;BME280;11634;42.734;23.298;2022-11-15T09:29:25;95607.88;;;6.92;100.00
22938;BME280;11634;42.734;23.298;2022-11-15T09:32:09;95601.59;;;6.33;100.00
22938;BME280;11634;42.734;23.298;2022-11-15T09:34:53;95582.78;;;6.18;100.00
22938;BME280;11634;42.734;23.298;2022-11-15T09:37:37;95585.06;;;6.35;100.00
22938;BME280;11634;42.734;23.298;2022-11-15T09:40:21;95594.84;;;6.56;100.00
22938;BME280;11634;42.734;23.298;2022-11-15T09:43:17;95584.50;;;6.69;100.00
22938;BME280;11634;42.734;23.298;2022-11-15T09:49:41;95584.34;;;7.07;100.00
22938;BME280;11634;42.734;23.298;2022-11-15T09:52:17;95585.81;;;7.24;100.00
22938;BME280;11634;42.734;23.298;2022-11-15T09:54:47;95587.47;;;7.12;100.00
22938;BME280;11634;42.734;23.298;2022-11-15T09:57:36;95590.06;;;7.00;100.00
22938;BME280;11634;42.734;23.298;2022-11-15T10:00:22;95576.38;;;7.23;100.00
22938;BME280;11634;42.734;23.298;2022-11-15T10:05:20;95572.03;;;7.11;100.00
22938;BME280;11634;42.734;23.298;2022-11-15T10:10:57;95569.66;;;7.08;100.00
22938;BME280;11634;42.734;23.298;2022-11-15T10:13:25;95559.34;;;6.71;100.00
22938;BME280;11634;42.734;23.298;2022-11-15T10:15:56;95568.63;;;6.98;100.00
22938;BME280;11634;42.734;23.298;2022-11-15T10:18:40;95539.91;;;6.65;100.00
22938;BME280;11634;42.734;23.298;2022-11-15T10:21:18;95540.56;;;7.05;100.00
22938;BME280;11634;42.734;23.298;2022-11-15T10:23:44;95555.19;;;7.54;100.00
22938;BME280;11634;42.734;23.298;2022-11-15T10:26:14;95558.47;;;8.02;100.00
22938;BME280;11634;42.734;23.298;2022-11-15T10:28:40;95569.66;;;8.26;100.00
22938;BME280;11634;42.734;23.298;2022-11-15T10:31:22;95567.59;;;8.42;100.00
22938;BME280;11634;42.734;23.298;2022-11-15T10:33:48;95577.94;;;8.76;100.00
22938;BME280;11634;42.734;23.298;2022-11-15T10:41:15;95551.28;;;8.06;100.00
22938;BME280;11634;42.734;23.298;2022-11-15T10:43:42;95568.69;;;8.04;100.00
22938;BME280;11634;42.734;23.298;2022-11-15T10:46:25;95557.25;;;7.95;100.00
22938;BME280;11634;42.734;23.298;2022-11-15T10:48:51;95547.13;;;7.92;100.00
22938;BME280;11634;42.734;23.298;2022-11-15T10:51:26;95542.38;;;8.10;100.00
22938;BME280;11634;42.734;23.298;2022-11-15T10:53:59;95545.28;;;7.82;100.00
22938;BME280;11634;42.734;23.298;2022-11-15T10:56:26;95542.16;;;7.89;100.00
22938;BME280;11634;42.734;23.298;2022-11-15T10:58:58;95468.38;;;7.71;100.00
22938;BME280;11634;42.734;23.298;2022-11-15T11:01:26;95519.94;;;8.32;100.00
22938;BME280;11634;42.734;23.298;2022-11-15T11:06:26;95517.75;;;8.49;100.00
22938;BME280;11634;42.734;23.298;2022-11-15T11:09:05;95533.19;;;8.51;100.00
22938;BME280;11634;42.734;23.298;2022-11-15T11:11:50;95506.66;;;8.47;100.00
22938;BME280;11634;42.734;23.298;2022-11-15T11:14:38;95515.63;;;8.43;100.00
22938;BME280;11634;42.734;23.298;2022-11-15T11:17:31;95530.53;;;8.29;100.00
22938;BME280;11634;42.734;23.298;2022-11-15T11:31:28;95484.75;;;8.73;100.00
22938;BME280;11634;42.734;23.298;2022-11-15T11:33:44;95501.97;;;8.74;100.00
22938;BME280;11634;42.734;23.298;2022-11-15T11:39:36;95483.06;;;9.26;100.00
22938;BME280;11634;42.734;23.298;2022-11-15T11:42:20;95475.06;;;8.86;100.00
22938;BME280;11634;42.734;23.298;2022-11-15T11:47:58;95469.28;;;9.15;100.00
22938;BME280;11634;42.734;23.298;2022-11-15T11:50:27;95456.19;;;9.06;100.00
22938;BME280;11634;42.734;23.298;2022-11-15T11:55:32;95441.34;;;8.86;100.00
22938;BME280;11634;42.734;23.298;2022-11-15T11:58:21;95456.91;;;8.97;100.00
22938;BME280;11634;42.734;23.298;2022-11-15T12:00:55;95440.53;;;8.85;100.00
22938;BME280;11634;42.734;23.298;2022-11-15T12:03:36;95446.28;;;8.67;100.00
22938;BME280;11634;42.734;23.298;2022-11-15T12:09:15;95431.69;;;8.88;100.00
22938;BME280;11634;42.734;23.298;2022-11-15T12:14:50;95396.44;;;8.74;100.00
22938;BME280;11634;42.734;23.298;2022-11-15T12:17:21;95413.16;;;8.81;100.00
22938;BME280;11634;42.734;23.298;2022-11-15T12:19:48;95417.28;;;8.84;100.00
22938;BME280;11634;42.734;23.298;2022-11-15T12:22:23;95425.75;;;8.97;100.00
22938;BME280;11634;42.734;23.298;2022-11-15T12:25:00;95416.31;;;9.07;100.00
22938;BME280;11634;42.734;23.298;2022-11-15T12:27:37;95412.34;;;9.34;100.00
22938;BME280;11634;42.734;23.298;2022-11-15T12:30:11;95407.03;;;9.35;100.00
22938;BME280;11634;42.734;23.298;2022-11-15T12:32:38;95412.50;;;9.22;100.00
22938;BME280;11634;42.734;23.298;2022-11-15T12:35:27;95386.94;;;8.95;100.00
22938;BME280;11634;42.734;23.298;2022-11-15T12:37:55;95401.44;;;9.09;100.00
22938;BME280;11634;42.734;23.298;2022-11-15T12:40:25;95368.25;;;8.81;100.00
22938;BME280;11634;42.734;23.298;2022-11-15T12:45:40;95365.97;;;8.87;100.00
22938;BME280;11634;42.734;23.298;2022-11-15T12:50:56;95372.19;;;9.07;100.00
22938;BME280;11634;42.734;23.298;2022-11-15T13:06:49;95369.16;;;9.22;100.00
22938;BME280;11634;42.734;23.298;2022-11-15T13:12:10;95347.13;;;9.17;100.00
22938;BME280;11634;42.734;23.298;2022-11-15T13:19:53;95346.09;;;9.08;100.00
22938;BME280;11634;42.734;23.298;2022-11-15T13:22:25;95329.41;;;8.90;100.00
22938;BME280;11634;42.734;23.298;2022-11-15T13:25:19;95332.06;;;9.11;100.00
22938;BME280;11634;42.734;23.298;2022-11-15T13:27:48;95322.56;;;9.21;100.00
22938;BME280;11634;42.734;23.298;2022-11-15T13:30:27;95323.75;;;9.17;100.00
22938;BME280;11634;42.734;23.298;2022-11-15T13:32:53;95316.66;;;9.19;100.00
22938;BME280;11634;42.734;23.298;2022-11-15T13:35:25;95310.09;;;9.15;100.00
22938;BME280;11634;42.734;23.298;2022-11-15T13:37:53;95325.53;;;9.16;100.00
22938;BME280;11634;42.734;23.298;2022-11-15T13:40:29;95328.75;;;9.09;100.00
22938;BME280;11634;42.734;23.298;2022-11-15T13:42:59;95315.16;;;9.16;100.00
22938;BME280;11634;42.734;23.298;2022-11-15T13:45:39;95306.31;;;9.08;100.00
22938;BME280;11634;42.734;23.298;2022-11-15T13:48:05;95301.63;;;9.02;100.00
22938;BME280;11634;42.734;23.298;2022-11-15T13:50:36;95319.88;;;9.11;100.00
22938;BME280;11634;42.734;23.298;2022-11-15T13:53:03;95305.28;;;8.99;100.00
22938;BME280;11634;42.734;23.298;2022-11-15T13:55:30;95312.06;;;8.91;100.00
22938;BME280;11634;42.734;23.298;2022-11-15T13:58:03;95307.84;;;8.79;100.00
22938;BME280;11634;42.734;23.298;2022-11-15T14:00:37;95290.81;;;8.86;100.00
22938;BME280;11634;42.734;23.298;2022-11-15T14:05:39;95309.06;;;8.95;100.00
22938;BME280;11634;42.734;23.298;2022-11-15T14:10:46;95308.91;;;8.76;100.00
22938;BME280;11634;42.734;23.298;2022-11-15T14:13:28;95309.78;;;8.66;100.00
22938;BME280;11634;42.734;23.298;2022-11-15T14:15:54;95313.22;;;8.56;100.00
22938;BME280;11634;42.734;23.298;2022-11-15T14:18:41;95293.63;;;8.52;100.00
22938;BME280;11634;42.734;23.298;2022-11-15T14:21:07;95295.22;;;8.32;100.00
22938;BME280;11634;42.734;23.298;2022-11-15T14:23:34;95285.19;;;8.28;100.00
22938;BME280;11634;42.734;23.298;2022-11-15T14:26:00;95282.28;;;8.21;100.00
22938;BME280;11634;42.734;23.298;2022-11-15T14:30:53;95277.28;;;7.97;100.00
22938;BME280;11634;42.734;23.298;2022-11-15T14:33:29;95284.84;;;8.00;100.00
22938;BME280;11634;42.734;23.298;2022-11-15T14:36:11;95268.47;;;7.77;100.00
22938;BME280;11634;42.734;23.298;2022-11-15T14:38:37;95270.25;;;7.77;100.00
22938;BME280;11634;42.734;23.298;2022-11-15T14:41:03;95257.28;;;7.66;100.00
22938;BME280;11634;42.734;23.298;2022-11-15T14:43:29;95252.31;;;7.52;100.00
22938;BME280;11634;42.734;23.298;2022-11-15T14:45:55;95266.66;;;7.56;100.00
22938;BME280;11634;42.734;23.298;2022-11-15T14:48:20;95257.28;;;7.55;100.00
22938;BME280;11634;42.734;23.298;2022-11-15T14:50:47;95254.44;;;7.36;100.00
22938;BME280;11634;42.734;23.298;2022-11-15T14:53:19;95227.81;;;7.23;100.00
22938;BME280;11634;42.734;23.298;2022-11-15T14:55:46;95245.47;;;7.29;100.00
22938;BME280;11634;42.734;23.298;2022-11-15T14:58:13;95226.88;;;7.24;100.00
22938;BME280;11634;42.734;23.298;2022-11-15T15:00:40;95223.09;;;7.17;100.00
22938;BME280;11634;42.734;23.298;2022-11-15T15:03:06;95238.16;;;7.34;100.00
22938;BME280;11634;42.734;23.298;2022-11-15T15:05:37;95234.03;;;7.32;100.00
22938;BME280;11634;42.734;23.298;2022-11-15T15:08:04;95227.81;;;7.23;100.00
22938;BME280;11634;42.734;23.298;2022-11-15T15:10:42;95239.69;;;7.26;100.00
22938;BME280;11634;42.734;23.298;2022-11-15T15:13:19;95231.81;;;7.27;100.00
22938;BME280;11634;42.734;23.298;2022-11-15T15:15:45;95226.41;;;7.30;100.00
22938;BME280;11634;42.734;23.298;2022-11-15T15:18:10;95222.75;;;7.22;100.00
22938;BME280;11634;42.734;23.298;2022-11-15T15:20:38;95192.59;;;7.10;100.00
22938;BME280;11634;42.734;23.298;2022-11-15T15:23:05;95196.84;;;7.11;100.00
22938;BME280;11634;42.734;23.298;2022-11-15T15:25:33;95217.19;;;7.15;100.00
22938;BME280;11634;42.734;23.298;2022-11-15T15:28:00;95211.69;;;7.20;100.00
22938;BME280;11634;42.734;23.298;2022-11-15T15:30:29;95194.59;;;6.96;100.00
22938;BME280;11634;42.734;23.298;2022-11-15T15:32:55;95196.09;;;6.98;100.00
22938;BME280;11634;42.734;23.298;2022-11-15T15:35:23;95156.22;;;6.79;100.00
22938;BME280;11634;42.734;23.298;2022-11-15T15:37:53;95175.88;;;6.92;100.00
22938;BME280;11634;42.734;23.298;2022-11-15T15:40:20;95189.75;;;7.02;100.00
22938;BME280;11634;42.734;23.298;2022-11-15T15:42:47;95197.19;;;7.07;100.00
22938;BME280;11634;42.734;23.298;2022-11-15T15:45:14;95215.47;;;7.27;100.00
22938;BME280;11634;42.734;23.298;2022-11-15T15:47:40;95205.69;;;7.30;100.00
22938;BME280;11634;42.734;23.298;2022-11-15T15:50:17;95216.88;;;7.31;100.00
22938;BME280;11634;42.734;23.298;2022-11-15T15:52:45;95216.66;;;7.34;100.00
22938;BME280;11634;42.734;23.298;2022-11-15T15:55:10;95200.50;;;7.19;100.00